Crestone, Colorado
Current Conditions -  °F | °C
As of 9:07 AM on Sunday 25 Jan 2015 (Local Time) from K04V Reporting Station
Clear Clear  
Wind Chill: 26°   Ceiling: Unl
Heat Index: 34°   Visibility: 10mi
Dew Point: 21°   Wind: 10mph
Humidity: 60%   Direction: 20°NNE
Pressure: 30.32"   Gusts: NA
Location:  38°N, 105.7°W
Report Text: K04V 251607Z AUTO 02009KT 10SM CLR 01/M06 A3032 RMK AO2
Loading
Personal Weather Stations






























Interactive Weather Map New forecast layout! Learn more

10-Day Weather Forecast

Advertisements
Track Severe Weather on mobile